createdAt,value
2023-04-13T00:01:46.760Z,50.80
2023-04-13T00:04:13.895Z,54.00
2023-04-13T00:06:58.407Z,54.00
2023-04-13T00:09:25.221Z,48.30
2023-04-13T00:12:00.090Z,50.30
2023-04-13T00:14:26.947Z,48.80
2023-04-13T00:16:53.584Z,49.50
2023-04-13T00:19:20.349Z,50.00
2023-04-13T00:21:44.098Z,50.30
2023-04-13T00:24:10.584Z,44.30
2023-04-13T00:26:36.730Z,45.70
2023-04-13T00:29:20.628Z,48.40
2023-04-13T00:31:57.128Z,49.80
2023-04-13T00:34:31.890Z,50.70
2023-04-13T00:37:18.086Z,50.10
2023-04-13T00:39:45.607Z,46.00
2023-04-13T00:42:09.163Z,47.90
2023-04-13T00:44:37.153Z,51.10
2023-04-13T00:47:04.588Z,53.30
2023-04-13T00:49:34.505Z,52.30
2023-04-13T00:52:18.695Z,47.20
2023-04-13T00:54:55.634Z,47.10
2023-04-13T00:57:28.954Z,46.40
2023-04-13T01:02:18.425Z,51.30
2023-04-13T01:04:48.589Z,48.20
2023-04-13T01:07:21.313Z,47.60
2023-04-13T01:09:52.485Z,49.00
2023-04-13T01:12:26.183Z,42.80
2023-04-13T01:15:02.738Z,45.40
2023-04-13T01:17:53.625Z,49.20
2023-04-13T01:20:29.010Z,48.90
2023-04-13T01:22:56.920Z,50.30
2023-04-13T01:25:31.344Z,49.40
2023-04-13T01:28:00.496Z,47.30
2023-04-13T01:30:28.325Z,47.80
2023-04-13T01:32:54.079Z,45.30
2023-04-13T01:35:22.166Z,48.80
2023-04-13T01:37:46.512Z,47.00
2023-04-13T01:40:14.654Z,49.30
2023-04-13T01:42:45.817Z,50.10
2023-04-13T01:45:14.038Z,49.70
2023-04-13T01:47:41.948Z,46.50
2023-04-13T01:50:35.776Z,43.50
2023-04-13T01:53:16.968Z,46.10
2023-04-13T01:56:00.552Z,44.40
2023-04-13T01:58:33.672Z,47.10
2023-04-13T02:01:17.412Z,47.30
2023-04-13T02:03:52.681Z,52.40
2023-04-13T02:06:16.323Z,46.20
2023-04-13T02:08:52.389Z,43.60
2023-04-13T02:11:20.959Z,51.20
2023-04-13T02:13:44.801Z,50.10
2023-04-13T02:16:12.233Z,49.10
2023-04-13T02:18:40.951Z,51.40
2023-04-13T02:21:08.598Z,48.70
2023-04-13T02:23:33.269Z,50.00
2023-04-13T02:25:58.023Z,52.20
2023-04-13T02:28:41.863Z,51.50
2023-04-13T02:31:20.298Z,54.90
2023-04-13T02:33:46.545Z,56.00
2023-04-13T02:36:11.996Z,53.80
2023-04-13T02:38:41.866Z,57.20
2023-04-13T02:41:10.962Z,51.30
2023-04-13T02:43:55.172Z,50.30
2023-04-13T02:46:22.942Z,48.80
2023-04-13T02:48:51.057Z,48.30
2023-04-13T02:51:16.193Z,52.40
2023-04-13T02:53:49.806Z,52.30
2023-04-13T02:56:13.861Z,50.00
2023-04-13T02:58:46.989Z,49.50
2023-04-13T03:01:13.613Z,51.50
2023-04-13T03:03:37.371Z,50.90
2023-04-13T03:06:23.544Z,49.90
2023-04-13T03:09:08.585Z,49.30
2023-04-13T03:11:40.712Z,58.70
2023-04-13T03:14:20.363Z,47.90
2023-04-13T03:16:45.029Z,50.80
2023-04-13T03:19:09.634Z,44.90
2023-04-13T03:21:33.851Z,48.00
2023-04-13T03:24:17.424Z,50.00
2023-04-13T03:26:41.379Z,48.10
2023-04-13T03:29:08.796Z,49.20
2023-04-13T03:31:37.061Z,46.70
2023-04-13T03:34:01.048Z,46.30
2023-04-13T03:36:27.982Z,51.10
2023-04-13T03:38:52.327Z,46.20
2023-04-13T03:41:18.922Z,43.60
2023-04-13T03:43:42.818Z,46.30
2023-04-13T03:46:09.136Z,48.90
2023-04-13T03:48:33.639Z,51.80
2023-04-13T03:50:59.483Z,45.00
2023-04-13T03:53:29.236Z,49.30
2023-04-13T03:55:55.622Z,51.20
2023-04-13T03:58:19.278Z,49.00
2023-04-13T04:00:54.032Z,47.70
2023-04-13T04:03:24.968Z,49.10
2023-04-13T04:05:51.832Z,49.90
2023-04-13T04:08:28.072Z,57.70
2023-04-13T04:10:54.097Z,49.20
2023-04-13T04:13:39.395Z,44.20
2023-04-13T04:16:18.374Z,40.90
2023-04-13T04:18:48.742Z,45.30
2023-04-13T04:21:16.251Z,44.80
2023-04-13T04:24:00.735Z,39.50
2023-04-13T04:26:49.708Z,42.20
2023-04-13T04:29:13.808Z,42.20
2023-04-13T04:31:43.242Z,39.10
2023-04-13T04:34:12.997Z,44.90
2023-04-13T04:36:45.184Z,45.70
2023-04-13T04:39:13.810Z,42.10
2023-04-13T04:42:03.537Z,41.80
2023-04-13T04:44:30.043Z,39.80
2023-04-13T04:47:05.396Z,40.30
2023-04-13T04:49:33.443Z,40.70
2023-04-13T04:51:58.336Z,39.70
2023-04-13T04:54:22.978Z,42.90
2023-04-13T04:56:47.417Z,39.10
2023-04-13T04:59:15.180Z,37.40
2023-04-13T05:01:50.290Z,38.70
2023-04-13T05:04:34.320Z,41.50
2023-04-13T05:07:01.939Z,37.30
2023-04-13T05:09:26.030Z,41.20
2023-04-13T05:11:53.368Z,36.60
2023-04-13T05:14:18.052Z,36.70
2023-04-13T05:16:41.511Z,37.70
2023-04-13T05:19:12.087Z,36.20
2023-04-13T05:21:42.213Z,34.40
2023-04-13T05:24:06.508Z,34.00
2023-04-13T05:26:34.020Z,34.30
2023-04-13T05:28:58.279Z,37.20
2023-04-13T05:31:28.234Z,35.60
2023-04-13T05:33:56.612Z,33.40
2023-04-13T05:36:23.534Z,31.50
2023-04-13T05:38:47.237Z,28.50
2023-04-13T05:41:11.280Z,29.70
2023-04-13T05:43:35.713Z,33.30
2023-04-13T05:45:59.119Z,28.30
2023-04-13T05:48:22.580Z,26.30
2023-04-13T05:50:46.937Z,26.70
2023-04-13T05:53:10.545Z,20.60
2023-04-13T05:55:42.126Z,23.50
2023-04-13T05:58:05.881Z,24.60
2023-04-13T06:00:29.748Z,23.60
2023-04-13T06:02:58.855Z,22.40
2023-04-13T06:05:24.089Z,20.70
2023-04-13T06:07:47.803Z,20.70
2023-04-13T06:10:11.916Z,19.30
2023-04-13T06:12:35.718Z,19.90
2023-04-13T06:14:59.067Z,18.60
2023-04-13T06:17:24.625Z,17.20
2023-04-13T06:19:48.544Z,18.40
2023-04-13T06:22:12.089Z,16.30
2023-04-13T06:24:36.788Z,15.20
2023-04-13T06:27:01.215Z,28.70
2023-04-13T06:29:24.696Z,14.30
2023-04-13T06:31:55.469Z,11.80
2023-04-13T06:34:19.570Z,11.00
2023-04-13T06:36:43.451Z,10.60
2023-04-13T06:41:32.632Z,9.50
2023-04-13T06:44:09.891Z,11.60
2023-04-13T06:46:43.577Z,12.00
2023-04-13T06:49:08.594Z,13.50
2023-04-13T06:51:33.414Z,12.60
2023-04-13T06:53:57.397Z,14.90
2023-04-13T06:56:20.805Z,14.90
2023-04-13T06:58:44.791Z,16.30
2023-04-13T07:01:08.799Z,12.70
2023-04-13T07:03:33.482Z,14.10
2023-04-13T07:05:57.241Z,11.00
2023-04-13T07:08:21.167Z,11.00
2023-04-13T07:10:44.868Z,12.60
2023-04-13T07:13:19.225Z,10.80
2023-04-13T07:15:43.467Z,13.30
2023-04-13T07:18:07.313Z,11.90
2023-04-13T07:20:30.916Z,18.50
2023-04-13T07:22:54.563Z,12.90
2023-04-13T07:25:18.341Z,11.70
2023-04-13T07:27:42.218Z,12.50
2023-04-13T07:30:08.418Z,15.40
2023-04-13T07:32:36.009Z,13.90
2023-04-13T07:35:01.072Z,21.20
2023-04-13T07:37:25.463Z,19.60
2023-04-13T07:39:49.008Z,17.30
2023-04-13T07:42:13.142Z,17.70
2023-04-13T07:44:41.367Z,14.90
2023-04-13T07:47:06.114Z,14.60
2023-04-13T07:49:30.368Z,12.60
2023-04-13T07:51:54.878Z,14.60
2023-04-13T07:54:18.802Z,18.90
2023-04-13T07:56:42.334Z,17.40
2023-04-13T07:59:06.538Z,17.40
2023-04-13T08:01:30.792Z,13.80
2023-04-13T08:03:55.445Z,14.50
2023-04-13T08:06:20.834Z,13.70
2023-04-13T08:08:44.386Z,16.80
2023-04-13T08:11:08.365Z,20.70
2023-04-13T08:13:32.313Z,16.20
2023-04-13T08:15:56.607Z,14.00
2023-04-13T08:18:20.292Z,17.00
2023-04-13T08:20:45.318Z,14.40
2023-04-13T08:23:10.108Z,14.60
2023-04-13T08:25:40.357Z,11.20
2023-04-13T08:28:04.439Z,10.60
2023-04-13T08:30:27.911Z,14.40
2023-04-13T08:32:55.555Z,13.80
2023-04-13T08:35:19.986Z,11.00
2023-04-13T08:37:43.550Z,11.80
2023-04-13T08:40:11.410Z,14.20
2023-04-13T08:42:36.116Z,11.80
2023-04-13T08:45:00.685Z,10.80
2023-04-13T08:47:25.921Z,15.60
2023-04-13T08:49:50.914Z,14.00
2023-04-13T08:52:21.169Z,13.50
2023-04-13T08:54:48.076Z,15.30
2023-04-13T08:57:16.992Z,13.60
2023-04-13T08:59:43.510Z,11.50
2023-04-13T09:02:08.248Z,12.10
2023-04-13T09:04:38.395Z,12.90
2023-04-13T09:07:03.955Z,13.60
2023-04-13T09:11:52.060Z,13.30
2023-04-13T09:14:19.468Z,13.30
2023-04-13T09:16:43.460Z,16.40
2023-04-13T09:19:30.445Z,13.80
2023-04-13T09:21:53.965Z,12.70
2023-04-13T09:24:17.891Z,14.40
2023-04-13T09:26:42.137Z,13.10
2023-04-13T09:29:05.561Z,16.00
2023-04-13T09:31:32.566Z,15.70
2023-04-13T09:33:56.383Z,12.20
2023-04-13T09:36:21.866Z,12.00
2023-04-13T09:38:50.851Z,13.70
2023-04-13T09:41:14.353Z,12.20
2023-04-13T09:43:38.214Z,16.00
2023-04-13T09:46:01.982Z,12.80
2023-04-13T09:48:25.773Z,12.60
2023-04-13T09:50:59.248Z,11.40
2023-04-13T09:53:22.786Z,14.40
2023-04-13T09:55:56.460Z,12.50
2023-04-13T09:58:20.284Z,13.20
2023-04-13T10:00:46.048Z,11.70
2023-04-13T10:05:44.130Z,18.10
2023-04-13T10:08:27.297Z,17.70
2023-04-13T10:11:00.077Z,12.30
2023-04-13T10:13:29.824Z,11.90
2023-04-13T10:16:12.459Z,12.00
2023-04-13T10:18:47.181Z,9.70
2023-04-13T10:21:12.262Z,9.60
2023-04-13T10:23:38.415Z,11.70
2023-04-13T10:26:03.423Z,13.00
2023-04-13T10:28:27.029Z,10.60
2023-04-13T10:30:51.400Z,10.40
2023-04-13T10:33:15.040Z,10.60
2023-04-13T10:35:42.769Z,9.00
2023-04-13T10:38:08.499Z,9.40
2023-04-13T10:40:43.058Z,9.20
2023-04-13T10:43:06.487Z,10.30
2023-04-13T10:45:35.344Z,11.10
2023-04-13T10:47:58.877Z,11.50
2023-04-13T10:50:23.867Z,10.70
2023-04-13T10:53:01.116Z,11.00
2023-04-13T10:55:25.236Z,9.70
2023-04-13T10:57:49.095Z,11.00
2023-04-13T11:00:20.922Z,9.60
2023-04-13T11:02:44.653Z,11.30
2023-04-13T11:05:14.609Z,11.60
2023-04-13T11:07:40.988Z,9.10
2023-04-13T11:10:06.770Z,11.20
2023-04-13T11:12:30.499Z,9.10
2023-04-13T11:14:53.995Z,10.00
2023-04-13T11:17:19.008Z,8.20
2023-04-13T11:19:49.967Z,13.20
2023-04-13T11:22:17.391Z,7.60
2023-04-13T11:24:41.265Z,9.40
2023-04-13T11:27:07.720Z,7.50
2023-04-13T11:29:31.326Z,9.80
2023-04-13T11:31:54.775Z,8.40
2023-04-13T11:34:25.740Z,10.10
2023-04-13T11:36:59.798Z,10.50
2023-04-13T11:39:23.323Z,11.80
2023-04-13T11:41:47.011Z,9.40
2023-04-13T11:44:12.471Z,11.30
2023-04-13T11:46:37.357Z,8.90
2023-04-13T11:49:01.767Z,11.90
2023-04-13T11:51:25.938Z,10.90
2023-04-13T11:53:50.679Z,9.70
2023-04-13T11:56:14.315Z,11.30
2023-04-13T11:58:38.662Z,12.10
2023-04-13T12:01:13.817Z,9.50
2023-04-13T12:03:53.380Z,11.80
2023-04-13T12:06:24.089Z,9.10
2023-04-13T12:08:52.863Z,12.00
2023-04-13T12:11:41.205Z,12.10
2023-04-13T12:14:13.776Z,11.40
2023-04-13T12:19:10.548Z,9.80
2023-04-13T12:21:36.512Z,12.20
2023-04-13T12:24:01.616Z,9.80
2023-04-13T12:27:16.205Z,13.10
2023-04-13T12:29:15.484Z,9.70
2023-04-13T12:31:40.072Z,8.00
2023-04-13T12:34:04.703Z,13.40
2023-04-13T12:36:30.916Z,9.20
2023-04-13T12:41:16.835Z,9.20
2023-04-13T12:43:40.281Z,7.50
2023-04-13T12:46:04.187Z,6.60
2023-04-13T12:48:27.751Z,10.80
2023-04-13T12:50:51.143Z,8.20
2023-04-13T12:53:14.807Z,9.20
2023-04-13T12:55:38.255Z,7.10
2023-04-13T12:58:01.757Z,8.30
2023-04-13T13:00:25.757Z,7.40
2023-04-13T13:02:59.395Z,10.10
2023-04-13T13:05:30.512Z,9.30
2023-04-13T13:07:53.898Z,11.30
2023-04-13T13:12:46.215Z,9.20
2023-04-13T13:15:13.184Z,7.20
2023-04-13T13:17:38.714Z,8.20
2023-04-13T13:20:03.342Z,8.20
2023-04-13T13:22:28.473Z,11.40
2023-04-13T13:24:51.844Z,8.20
2023-04-13T13:29:42.472Z,8.40
2023-04-13T13:32:06.620Z,9.60
2023-04-13T13:34:30.480Z,7.80
2023-04-13T13:36:53.878Z,8.00
2023-04-13T13:39:18.101Z,11.00
2023-04-13T13:41:41.783Z,9.40
2023-04-13T13:44:05.354Z,7.90
2023-04-13T13:46:28.790Z,8.60
2023-04-13T13:48:52.602Z,8.60
2023-04-13T13:51:42.951Z,9.50
2023-04-13T13:54:07.271Z,6.20
2023-04-13T13:56:30.705Z,9.00
2023-04-13T13:58:54.433Z,7.10
2023-04-13T14:01:18.072Z,7.20
2023-04-13T14:03:41.850Z,7.00
2023-04-13T14:06:07.115Z,6.80
2023-04-13T14:08:30.739Z,6.30
2023-04-13T14:10:54.282Z,9.60
2023-04-13T14:13:17.792Z,7.00
2023-04-13T14:15:41.390Z,8.50
2023-04-13T14:18:09.838Z,6.00
2023-04-13T14:20:35.105Z,3.80
2023-04-13T14:22:58.942Z,5.90
2023-04-13T14:25:22.589Z,5.40
2023-04-13T14:27:46.455Z,5.50
2023-04-13T14:30:11.487Z,4.20
2023-04-13T14:32:35.238Z,8.70
2023-04-13T14:34:59.751Z,4.30
2023-04-13T14:37:23.547Z,6.20
2023-04-13T14:39:46.989Z,7.40
2023-04-13T14:42:18.139Z,5.80
2023-04-13T14:44:42.554Z,4.90
2023-04-13T14:47:08.953Z,9.00
2023-04-13T14:49:33.301Z,9.10
2023-04-13T14:51:56.980Z,4.40
2023-04-13T14:54:20.581Z,6.20
2023-04-13T14:56:43.989Z,6.90
2023-04-13T14:59:07.372Z,6.50
2023-04-13T15:01:31.077Z,5.70
2023-04-13T15:03:54.866Z,5.10
2023-04-13T15:06:18.557Z,4.00
2023-04-13T15:08:41.946Z,4.20
2023-04-13T15:11:05.687Z,6.30
2023-04-13T15:13:29.200Z,5.10
2023-04-13T15:15:54.231Z,5.10
2023-04-13T15:18:17.820Z,6.30
2023-04-13T15:20:41.383Z,4.30
2023-04-13T15:23:05.190Z,5.20
2023-04-13T15:25:28.783Z,6.80
2023-04-13T15:27:53.673Z,5.90
2023-04-13T15:30:26.615Z,4.50
2023-04-13T15:32:50.181Z,4.30
2023-04-13T15:35:14.037Z,5.40
2023-04-13T15:37:37.457Z,4.80
2023-04-13T15:40:07.014Z,4.80
2023-04-13T15:42:30.468Z,3.90
2023-04-13T15:44:54.503Z,5.70
2023-04-13T15:47:17.887Z,7.10
2023-04-13T15:49:41.964Z,4.60
2023-04-13T15:52:05.411Z,5.30
2023-04-13T15:54:29.288Z,5.10
2023-04-13T15:56:52.834Z,4.90
2023-04-13T15:59:16.232Z,3.90
2023-04-13T16:01:46.030Z,8.40
2023-04-13T16:04:09.696Z,5.50
2023-04-13T16:06:33.207Z,6.50
2023-04-13T16:08:57.002Z,5.10
2023-04-13T16:11:20.868Z,6.60
2023-04-13T16:13:48.873Z,6.50
2023-04-13T16:16:14.188Z,5.20
2023-04-13T16:18:40.279Z,4.30
2023-04-13T16:21:04.562Z,7.00
2023-04-13T16:23:28.820Z,4.30
2023-04-13T16:25:52.655Z,7.70
2023-04-13T16:28:16.573Z,7.10
2023-04-13T16:30:39.992Z,5.60
2023-04-13T16:33:05.103Z,5.20
2023-04-13T16:35:29.370Z,5.60
2023-04-13T16:37:52.708Z,11.20
2023-04-13T16:40:16.326Z,5.10
2023-04-13T16:42:40.959Z,5.40
2023-04-13T16:45:05.530Z,6.60
2023-04-13T16:47:29.902Z,5.80
2023-04-13T16:49:53.765Z,6.90
2023-04-13T16:52:17.161Z,6.80
2023-04-13T16:54:43.810Z,5.90
2023-04-13T16:57:07.687Z,5.80
2023-04-13T16:59:31.301Z,7.20
2023-04-13T17:01:55.047Z,9.70
2023-04-13T17:04:18.943Z,9.70
2023-04-13T17:06:46.657Z,5.90
2023-04-13T17:09:10.534Z,4.90
2023-04-13T17:11:34.342Z,6.70
2023-04-13T17:13:57.926Z,6.30
2023-04-13T17:16:22.137Z,5.70
2023-04-13T17:18:45.940Z,8.60
2023-04-13T17:21:09.479Z,8.20
2023-04-13T17:23:33.198Z,9.50
2023-04-13T17:25:56.742Z,9.10
2023-04-13T17:28:24.292Z,10.10
2023-04-13T17:30:48.705Z,9.00
2023-04-13T17:33:12.339Z,11.20
2023-04-13T17:35:56.649Z,12.90
2023-04-13T17:38:20.208Z,7.30
2023-04-13T17:40:45.122Z,7.60
2023-04-13T17:43:09.024Z,9.80
2023-04-13T17:45:32.462Z,15.90
2023-04-13T17:47:56.015Z,17.80
2023-04-13T17:50:19.734Z,17.40
2023-04-13T17:52:43.744Z,17.30
2023-04-13T17:55:08.416Z,13.60
2023-04-13T17:57:32.139Z,12.90
2023-04-13T17:59:55.840Z,13.60
2023-04-13T18:02:19.842Z,15.30
2023-04-13T18:04:43.443Z,12.30
2023-04-13T18:07:27.163Z,15.50
2023-04-13T18:09:50.690Z,15.10
2023-04-13T18:12:16.526Z,17.90
2023-04-13T18:14:40.130Z,17.80
2023-04-13T18:17:04.430Z,19.40
2023-04-13T18:19:29.867Z,15.40
2023-04-13T18:21:53.344Z,17.00
2023-04-13T18:24:16.960Z,17.10
2023-04-13T18:26:40.579Z,16.20
2023-04-13T18:29:04.020Z,14.80
2023-04-13T18:34:57.727Z,19.50
2023-04-13T18:37:21.201Z,24.50
2023-04-13T18:39:55.874Z,21.10
2023-04-13T18:42:19.326Z,19.60
2023-04-13T18:44:42.973Z,21.10
2023-04-13T18:47:06.658Z,20.40
2023-04-13T18:49:30.351Z,21.20
2023-04-13T18:52:01.272Z,23.50
2023-04-13T18:54:24.975Z,22.90
2023-04-13T18:56:48.427Z,25.50
2023-04-13T18:59:15.553Z,27.40
2023-04-13T19:01:39.232Z,19.30
2023-04-13T19:04:03.166Z,22.00
2023-04-13T19:06:27.132Z,23.80
2023-04-13T19:08:59.712Z,19.80
2023-04-13T19:11:26.724Z,23.80
2023-04-13T19:13:50.533Z,21.20
2023-04-13T19:16:33.456Z,25.20
2023-04-13T19:18:57.168Z,22.60
2023-04-13T19:21:30.707Z,21.10
2023-04-13T19:24:05.898Z,26.80
2023-04-13T19:26:29.881Z,21.90
2023-04-13T19:28:55.610Z,22.10
2023-04-13T19:31:19.290Z,24.70
2023-04-13T19:33:51.375Z,26.10
2023-04-13T19:36:15.164Z,23.50
2023-04-13T19:38:39.123Z,21.40
2023-04-13T19:41:02.651Z,25.70
2023-04-13T19:43:27.457Z,19.90
2023-04-13T19:45:51.568Z,25.10
2023-04-13T19:48:15.080Z,23.40
2023-04-13T19:50:38.543Z,21.70
2023-04-13T19:53:02.240Z,20.30
2023-04-13T19:55:26.476Z,20.40
2023-04-13T19:57:49.890Z,23.00
2023-04-13T20:00:34.999Z,18.30
2023-04-13T20:03:02.499Z,17.50
2023-04-13T20:05:26.019Z,19.50
2023-04-13T20:07:49.478Z,22.70
2023-04-13T20:10:13.388Z,19.00
2023-04-13T20:12:36.947Z,21.40
2023-04-13T20:15:03.160Z,22.20
2023-04-13T20:17:26.862Z,18.50
2023-04-13T20:19:53.511Z,20.50
2023-04-13T20:22:17.674Z,19.40
2023-04-13T20:24:41.087Z,21.00
2023-04-13T20:27:04.892Z,20.20
2023-04-13T20:29:35.871Z,19.10
2023-04-13T20:31:59.700Z,19.70
2023-04-13T20:34:26.758Z,16.50
2023-04-13T20:36:50.354Z,17.30
2023-04-13T20:39:17.191Z,15.50
2023-04-13T20:41:40.618Z,17.80
2023-04-13T20:44:04.583Z,20.50
2023-04-13T20:46:33.311Z,18.40
2023-04-13T20:48:56.784Z,20.50
2023-04-13T20:51:23.457Z,19.40
2023-04-13T20:53:54.840Z,16.80
2023-04-13T20:56:18.583Z,18.30
2023-04-13T20:58:42.315Z,16.80
2023-04-13T21:01:06.237Z,16.70
2023-04-13T21:03:31.188Z,16.30
2023-04-13T21:05:54.781Z,20.70
2023-04-13T21:08:18.241Z,15.40
2023-04-13T21:10:46.262Z,16.90
2023-04-13T21:13:10.584Z,17.20
2023-04-13T21:15:34.258Z,16.70
2023-04-13T21:18:00.165Z,16.90
2023-04-13T21:20:24.953Z,17.90
2023-04-13T21:22:48.354Z,15.60
2023-04-13T21:25:12.068Z,16.90
2023-04-13T21:27:36.097Z,13.80
2023-04-13T21:30:01.118Z,15.00
2023-04-13T21:32:24.815Z,15.50
2023-04-13T21:34:48.607Z,15.10
2023-04-13T21:37:12.313Z,14.80
2023-04-13T21:39:35.982Z,15.50
2023-04-13T21:42:00.046Z,14.70
2023-04-13T21:44:29.627Z,16.60
2023-04-13T21:46:53.704Z,15.70
2023-04-13T21:49:17.687Z,16.30
2023-04-13T21:51:41.119Z,17.00
2023-04-13T21:54:07.216Z,17.50
2023-04-13T21:56:35.454Z,16.60
2023-04-13T21:58:59.154Z,15.00
2023-04-13T22:01:22.881Z,16.70
2023-04-13T22:03:52.326Z,15.90
2023-04-13T22:06:15.877Z,19.10
2023-04-13T22:08:39.555Z,20.00
2023-04-13T22:11:04.385Z,14.00
2023-04-13T22:13:27.913Z,16.00
2023-04-13T22:15:51.397Z,15.80
2023-04-13T22:18:15.760Z,16.70
2023-04-13T22:20:39.229Z,18.00
2023-04-13T22:23:02.742Z,16.20
2023-04-13T22:25:27.457Z,16.60
2023-04-13T22:27:52.313Z,14.90
2023-04-13T22:30:17.995Z,14.10
2023-04-13T22:32:42.017Z,13.40
2023-04-13T22:35:06.991Z,15.50
2023-04-13T22:37:32.275Z,14.30
2023-04-13T22:39:57.806Z,15.20
2023-04-13T22:42:21.250Z,16.20
2023-04-13T22:44:44.604Z,12.70
2023-04-13T22:47:08.673Z,14.80
2023-04-13T22:49:35.959Z,13.20
2023-04-13T22:52:05.284Z,12.00
2023-04-13T22:54:32.188Z,12.10
2023-04-13T22:57:00.560Z,16.00
2023-04-13T22:59:27.126Z,14.10
2023-04-13T23:01:53.796Z,13.80
2023-04-13T23:04:19.844Z,16.00
2023-04-13T23:06:43.644Z,13.80
2023-04-13T23:09:28.786Z,11.90
2023-04-13T23:11:52.601Z,14.30
2023-04-13T23:17:00.099Z,14.70
2023-04-13T23:19:42.702Z,14.40
2023-04-13T23:22:06.882Z,13.50
2023-04-13T23:24:53.281Z,12.90
2023-04-13T23:27:37.195Z,16.30
2023-04-13T23:30:01.300Z,14.70
2023-04-13T23:32:32.420Z,14.20
2023-04-13T23:35:07.463Z,13.30
2023-04-13T23:37:33.628Z,12.80
2023-04-13T23:39:58.418Z,11.30
2023-04-13T23:42:22.075Z,11.30
2023-04-13T23:44:45.548Z,12.10
2023-04-13T23:47:09.241Z,10.10
2023-04-13T23:49:53.842Z,11.70
2023-04-13T23:52:17.339Z,14.50
2023-04-13T23:54:43.814Z,11.60
2023-04-13T23:57:20.826Z,11.70
2023-04-13T23:59:47.602Z,12.70
